Terminal Aerodrome Forecast
Issued by NWS

Home | Current Version | Previous Version | Text Only | Print | Product List | Glossary On
Versions: 1 2 3 4 5 6 7 8 9 10 11 12 13 14
000
FTUS44 KMAF 201900 AAA
TAFINK
TAF AMD
KINK 201913Z 2019/2118 12010KT P6SM -SHRA OVC030
      TEMPO 2020/2024 2SM TSRA BR OVC015CB
     FM210000 13008KT P6SM -SHRA OVC040
     FM210800 12007KT 5SM -SHRA BR OVC020
      TEMPO 2108/2112 2SM TSRA BR OVC015CB
     FM211200 12005KT 3SM -SHRA BR OVC010=

USA.gov is the U.S. government's official web portal to all federal, state and local government web resources and services.